Terminal Aerodrome Forecast
Issued by NWS Wakefield, VA

Home | Current Version | Previous Version | Text Only | Print | Product List | Glossary On
Versions: 1 2 3 4 5 6 7 8 9 10 11 12 13 14 15
000
FTUS41 KAKQ 222300 CCA
TAFORF
TAF COR
KORF 222356Z 2300/2324 36010KT 3SM BR OVC005
     FM230300 04007KT 4SM BR OVC004
      TEMPO 2307/2311 1SM BR OVC004
     FM231400 06004KT 3SM -DZ BR OVC006=

USA.gov is the U.S. government's official web portal to all federal, state and local government web resources and services.